Sterrenberg, Netherlands
Current Conditions -  °F | °C
As of 12:25 AM on Sunday 23 Nov 2014 (Local Time) from EHDL Reporting Station
Haze Haze  
Wind Chill: 44°   Ceiling: 17000
Heat Index: 46°   Visibility: 6mi
Dew Point: 45°   Wind: 5mph
Humidity: 93%   Direction: 130°SE
Pressure: 30.06"   Gusts: NA
Location:  51.99°N, 5.88°E
Report Text: EHDL 222325Z AUTO 13004KT 9000 BR FEW110 BKN170 08/07 Q1018 BLU
Loading
Personal Weather Stations






























Interactive Weather Map New forecast layout! Learn more

10-Day Weather Forecast

Advertisements
Track Severe Weather on mobile